Time;durP1;ratioP1;P1;durP2;ratioP2;P2;SDS_P1;SDS_P2;PMS_P1;PMS_P2;Temp;Humidity;BMP_temperature;BMP_pressure;BME280_temperature;BME280_humidity;BME280_pressure;Samples;Min_cycle;Max_cycle;Signal;HPM_P1;HPM_P2
2022/10/23 00:01:12;;;;;;;7.20;5.15;;;;;;;10.58;100.00;100885.28;5013508;28;20632;-82
2022/10/23 00:03:39;;;;;;;8.82;6.03;;;;;;;10.60;100.00;100888.78;5023660;28;20489;-83
2022/10/23 00:06:06;;;;;;;7.45;5.03;;;;;;;10.61;100.00;100894.94;5015319;28;20045;-82
2022/10/23 00:08:33;;;;;;;8.48;5.70;;;;;;;10.61;100.00;100898.44;5008810;28;20041;-83
2022/10/23 00:10:59;;;;;;;6.95;6.15;;;;;;;10.62;100.00;100900.19;5001502;28;20048;-85
2022/10/23 00:13:27;;;;;;;6.68;4.90;;;;;;;10.63;100.00;100901.06;5011934;28;20037;-83
2022/10/23 00:15:53;;;;;;;9.15;5.93;;;;;;;10.68;100.00;100907.16;4995382;28;21713;-83
2022/10/23 00:18:21;;;;;;;8.98;5.30;;;;;;;10.67;100.00;100903.59;5020214;28;20052;-86
2022/10/23 00:20:47;;;;;;;7.47;5.72;;;;;;;10.70;100.00;100905.34;5012869;28;20132;-84
2022/10/23 00:23:15;;;;;;;8.55;5.88;;;;;;;10.76;100.00;100907.00;5014371;28;20102;-84
2022/10/23 00:25:42;;;;;;;9.00;5.90;;;;;;;10.78;100.00;100903.44;5014982;28;20044;-83
2022/10/23 00:28:09;;;;;;;9.10;6.68;;;;;;;10.81;100.00;100906.03;5029653;28;20037;-85
2022/10/23 00:30:36;;;;;;;11.50;6.40;;;;;;;10.85;100.00;100906.88;5013567;28;20037;-84
2022/10/23 00:33:02;;;;;;;7.93;6.05;;;;;;;10.89;100.00;100906.75;5016214;28;20490;-86
2022/10/23 00:35:29;;;;;;;10.98;6.80;;;;;;;10.93;100.00;100899.63;5015219;28;20110;-85
2022/10/23 00:37:56;;;;;;;12.13;7.10;;;;;;;10.97;100.00;100901.34;5028089;28;20041;-85
2022/10/23 00:40:23;;;;;;;9.43;6.10;;;;;;;10.99;100.00;100908.34;5029443;28;20049;-85
2022/10/23 00:42:50;;;;;;;18.42;6.60;;;;;;;11.03;100.00;100903.88;4998173;28;20567;-85
2022/10/23 00:45:30;;;;;;;9.30;6.63;;;;;;;11.05;100.00;100909.13;5029439;28;20067;-84
2022/10/23 00:47:57;;;;;;;10.20;6.90;;;;;;;11.08;100.00;100904.66;5001642;28;20045;-85
2022/10/23 00:50:24;;;;;;;9.85;6.55;;;;;;;11.10;100.00;100910.81;5032560;28;20040;-84
2022/10/23 00:52:53;;;;;;;10.15;7.03;;;;;;;11.12;100.00;100913.41;5016093;28;20037;-84
2022/10/23 00:55:22;;;;;;;8.60;6.32;;;;;;;11.16;100.00;100912.44;5001974;28;20036;-84
2022/10/23 00:57:50;;;;;;;12.18;7.35;;;;;;;11.19;100.00;100912.41;5034182;28;20541;-85
2022/10/23 01:00:23;;;;;;;10.57;6.93;;;;;;;11.18;100.00;100911.53;5003144;28;20476;-85
2022/10/23 01:02:50;;;;;;;8.63;6.72;;;;;;;11.20;100.00;100911.50;5015797;28;20048;-85
2022/10/23 01:05:18;;;;;;;11.27;7.95;;;;;;;11.23;100.00;100916.72;5017665;28;20037;-84
2022/10/23 01:08:06;;;;;;;11.88;8.63;;;;;;;11.26;100.00;100914.88;5020586;28;20061;-86
2022/10/23 01:10:37;;;;;;;16.25;8.45;;;;;;;11.32;100.00;100913.03;5009232;28;20040;-85
2022/10/23 01:13:05;;;;;;;13.07;8.52;;;;;;;11.31;100.00;100914.81;4999684;28;20449;-85
2022/10/23 01:15:41;;;;;;;15.40;8.98;;;;;;;11.32;100.00;100913.03;5017721;28;20045;-84
2022/10/23 01:18:22;;;;;;;10.85;8.07;;;;;;;11.33;100.00;100920.06;5003538;28;20048;-84
2022/10/23 01:20:54;;;;;;;13.70;8.68;;;;;;;11.33;100.00;100912.13;5020490;28;20130;-85
2022/10/23 01:23:32;;;;;;;14.82;8.93;;;;;;;11.36;100.00;100910.31;5004098;28;20091;-86
2022/10/23 01:26:23;;;;;;;12.98;8.68;;;;;;;11.33;100.00;100909.47;5019474;28;20099;-85
2022/10/23 01:29:02;;;;;;;13.02;8.63;;;;;;;11.36;100.00;100914.72;5030894;28;20041;-85
2022/10/23 01:31:51;;;;;;;16.17;9.45;;;;;;;11.38;100.00;100919.06;5019788;28;20387;-85
2022/10/23 01:34:22;;;;;;;12.48;8.40;;;;;;;11.40;100.00;100919.03;5005561;28;20049;-84
2022/10/23 01:36:50;;;;;;;14.52;8.70;;;;;;;11.40;100.00;100925.19;5020504;28;20051;-84
2022/10/23 01:39:26;;;;;;;15.80;9.75;;;;;;;11.41;100.00;100924.28;4991418;28;20132;-84
2022/10/23 01:42:02;;;;;;;15.10;9.60;;;;;;;11.38;100.00;100927.00;5002726;28;20048;-86
2022/10/23 01:44:35;;;;;;;12.05;8.75;;;;;;;11.33;100.00;100928.84;5018063;28;20037;-85
2022/10/23 01:47:03;;;;;;;17.02;9.30;;;;;;;11.39;100.00;100938.47;5013828;28;20044;-84
2022/10/23 01:49:30;;;;;;;11.00;8.25;;;;;;;11.36;100.00;100930.59;5010609;28;20073;-84
2022/10/23 01:52:01;;;;;;;13.98;9.02;;;;;;;11.36;100.00;100933.25;5002176;28;20045;-85
2022/10/23 01:54:30;;;;;;;13.82;8.38;;;;;;;11.39;100.00;100928.75;5002565;28;20037;-84
2022/10/23 01:56:57;;;;;;;15.38;8.32;;;;;;;11.39;100.00;100933.16;5000386;28;20072;-85
2022/10/23 01:59:35;;;;;;;13.25;8.30;;;;;;;11.37;100.00;100941.13;5011160;28;20621;-84
2022/10/23 02:02:03;;;;;;;14.27;8.90;;;;;;;11.34;100.00;100929.72;5000900;28;20056;-85
2022/10/23 02:04:33;;;;;;;13.73;8.10;;;;;;;11.34;100.00;100932.38;5014164;28;20037;-85
2022/10/23 02:06:59;;;;;;;12.50;7.93;;;;;;;11.33;100.00;100928.00;4998354;28;20069;-83
2022/10/23 02:09:26;;;;;;;11.38;7.85;;;;;;;11.26;100.00;100927.22;5007126;28;20044;-85
2022/10/23 02:11:57;;;;;;;12.73;8.95;;;;;;;11.23;100.00;100936.09;5017132;28;20068;-85
2022/10/23 02:14:38;;;;;;;12.07;8.38;;;;;;;11.20;100.00;100928.25;5005536;28;20478;-85
2022/10/23 02:17:14;;;;;;;11.60;7.70;;;;;;;11.18;100.00;100927.41;5018165;28;20052;-85
2022/10/23 02:19:49;;;;;;;10.27;7.78;;;;;;;11.15;100.00;100927.44;5012737;28;20037;-84
2022/10/23 02:22:35;;;;;;;10.02;7.40;;;;;;;11.15;100.00;100934.50;5017048;28;20037;-85
2022/10/23 02:25:11;;;;;;;11.18;7.28;;;;;;;11.12;100.00;100924.88;5017950;28;20059;-85
2022/10/23 02:27:44;;;;;;;11.18;8.02;;;;;;;11.13;100.00;100925.72;5012155;28;20037;-85
2022/10/23 02:30:13;;;;;;;14.48;7.68;;;;;;;11.11;100.00;100923.13;5013889;28;20049;-85
2022/10/23 02:32:42;;;;;;;10.95;7.95;;;;;;;11.12;100.00;100926.63;5017878;28;20041;-84
2022/10/23 02:35:09;;;;;;;13.98;7.65;;;;;;;11.09;100.00;100922.25;5005792;28;20036;-83
2022/10/23 02:37:36;;;;;;;10.45;7.15;;;;;;;11.11;100.00;100922.25;5003958;28;20041;-85
2022/10/23 02:40:04;;;;;;;10.38;6.80;;;;;;;11.07;100.00;100925.84;5018427;28;20048;-85
2022/10/23 02:42:45;;;;;;;9.07;6.97;;;;;;;11.06;100.00;100930.25;5002702;28;20087;-85
2022/10/23 02:45:24;;;;;;;11.38;6.82;;;;;;;11.05;100.00;100931.16;5000508;28;20068;-84
2022/10/23 02:48:06;;;;;;;9.68;7.20;;;;;;;11.03;100.00;100929.44;5037934;28;20116;-86
2022/10/23 02:50:40;;;;;;;8.85;6.90;;;;;;;11.00;100.00;100927.72;5026560;28;20041;-85
2022/10/23 02:53:18;;;;;;;10.77;7.82;;;;;;;10.97;100.00;100927.78;5002847;28;20049;-86
2022/10/23 02:55:44;;;;;;;12.20;7.20;;;;;;;10.90;100.00;100932.28;4994212;28;20106;-83
2022/10/23 02:58:20;;;;;;;9.63;6.22;;;;;;;10.86;100.00;100935.91;5028720;28;20104;-85
2022/10/23 03:01:09;;;;;;;9.88;6.55;;;;;;;10.84;100.00;100927.09;5044239;28;20041;-86
2022/10/23 03:03:41;;;;;;;9.25;6.15;;;;;;;10.71;100.00;100929.09;5004987;28;20070;-84
2022/10/23 03:06:08;;;;;;;9.65;6.10;;;;;;;10.66;100.00;100928.28;4993005;28;20521;-83
2022/10/23 03:08:57;;;;;;;7.80;5.78;;;;;;;10.58;100.00;100932.81;5014672;28;20045;-84
2022/10/23 03:11:24;;;;;;;7.10;5.47;;;;;;;10.52;100.00;100932.94;5012220;28;20060;-83
2022/10/23 03:13:51;;;;;;;7.03;5.78;;;;;;;10.44;100.00;100934.84;5015016;28;20036;-85
2022/10/23 03:16:18;;;;;;;9.45;5.63;;;;;;;10.36;100.00;100940.22;5021249;28;20485;-85
2022/10/23 03:18:44;;;;;;;8.23;5.57;;;;;;;10.31;100.00;100941.19;4998338;28;20041;-84
2022/10/23 03:21:11;;;;;;;7.72;5.40;;;;;;;10.25;100.00;100938.63;5001271;28;20061;-85
2022/10/23 03:23:38;;;;;;;8.48;5.88;;;;;;;10.19;100.00;100934.28;5012042;28;20037;-84
2022/10/23 03:26:04;;;;;;;7.78;5.85;;;;;;;10.18;100.00;100936.97;5016577;28;20045;-84
2022/10/23 03:28:31;;;;;;;7.57;5.72;;;;;;;10.12;100.00;100937.91;5008242;28;21572;-84
2022/10/23 03:31:00;;;;;;;8.05;5.75;;;;;;;10.09;100.00;100937.97;5002373;28;20045;-83
2022/10/23 03:33:28;;;;;;;7.18;6.10;;;;;;;10.06;100.00;100936.22;5017400;28;20067;-84
2022/10/23 03:35:55;;;;;;;8.65;5.90;;;;;;;10.00;100.00;100930.16;5019089;28;20041;-83
2022/10/23 03:38:21;;;;;;;7.13;5.65;;;;;;;9.96;100.00;100939.00;5010071;28;20049;-85
2022/10/23 03:40:48;;;;;;;7.70;5.50;;;;;;;9.94;100.00;100936.41;5025556;28;20498;-86
2022/10/23 03:43:15;;;;;;;8.23;5.05;;;;;;;9.90;100.00;100944.38;4996352;28;20045;-84
2022/10/23 03:45:41;;;;;;;6.93;5.05;;;;;;;9.88;100.00;100947.91;5006253;28;20086;-84
2022/10/23 03:48:08;;;;;;;9.00;5.60;;;;;;;9.84;100.00;100940.06;5004704;28;20037;-85
2022/10/23 03:50:35;;;;;;;8.25;5.07;;;;;;;9.82;100.00;100944.47;5001219;28;20110;-84
2022/10/23 03:53:02;;;;;;;7.80;4.80;;;;;;;9.81;100.00;100942.72;5017821;28;20090;-81
2022/10/23 03:55:28;;;;;;;6.97;5.28;;;;;;;9.74;100.00;100947.19;5017688;28;20071;-83
2022/10/23 03:57:55;;;;;;;6.88;5.40;;;;;;;9.72;100.00;100945.47;5000183;28;20059;-83
2022/10/23 04:00:22;;;;;;;7.53;4.88;;;;;;;9.65;100.00;100943.81;5000385;28;20072;-82
2022/10/23 04:02:48;;;;;;;6.75;4.80;;;;;;;9.58;100.00;100951.81;5009464;28;20149;-84
2022/10/23 04:05:15;;;;;;;9.25;5.35;;;;;;;9.54;100.00;100958.00;5000200;28;20041;-82
2022/10/23 04:07:42;;;;;;;7.47;4.53;;;;;;;9.47;100.00;100956.31;5012980;28;20064;-82
2022/10/23 04:10:08;;;;;;;6.70;4.88;;;;;;;9.45;100.00;100954.59;4998144;28;20498;-81
2022/10/23 04:12:35;;;;;;;8.07;5.97;;;;;;;9.40;100.00;100954.63;4999846;28;22107;-81
2022/10/23 04:15:02;;;;;;;7.78;5.13;;;;;;;9.34;100.00;100954.72;5012823;28;20127;-82
2022/10/23 04:17:28;;;;;;;9.27;5.65;;;;;;;9.30;100.00;100956.50;5014301;28;20064;-82
2022/10/23 04:19:55;;;;;;;9.52;5.30;;;;;;;9.26;100.00;100952.16;5015480;28;20041;-82
2022/10/23 04:22:22;;;;;;;7.45;4.82;;;;;;;9.22;100.00;100954.84;5016720;28;20071;-81
2022/10/23 04:24:53;;;;;;;6.40;5.20;;;;;;;9.17;100.00;100957.53;4996251;28;20064;-82
2022/10/23 04:27:19;;;;;;;7.50;5.60;;;;;;;9.09;100.00;100953.22;5011660;28;20067;-83
2022/10/23 04:29:46;;;;;;;7.18;5.10;;;;;;;9.03;100.00;100965.56;5015639;28;20052;-82
2022/10/23 04:32:13;;;;;;;7.05;4.65;;;;;;;8.97;100.00;100962.09;5014475;28;20070;-82
2022/10/23 04:34:39;;;;;;;7.63;5.05;;;;;;;8.95;100.00;100963.88;5024226;28;20041;-82
2022/10/23 04:37:06;;;;;;;8.77;5.47;;;;;;;8.93;100.00;100963.03;5020035;28;20041;-83
2022/10/23 04:39:33;;;;;;;6.70;5.35;;;;;;;8.86;100.00;100964.84;4995080;28;20060;-82
2022/10/23 04:41:59;;;;;;;6.68;4.60;;;;;;;8.83;100.00;100971.88;5014211;28;20140;-82
2022/10/23 04:44:26;;;;;;;8.32;5.28;;;;;;;8.79;100.00;100972.81;4999625;28;20490;-82
2022/10/23 04:46:53;;;;;;;6.97;5.43;;;;;;;8.73;100.00;100968.44;5038087;28;20037;-84
2022/10/23 04:49:19;;;;;;;9.00;4.95;;;;;;;8.72;100.00;100972.84;5018531;28;20090;-82
2022/10/23 04:51:46;;;;;;;7.10;4.80;;;;;;;8.71;100.00;100975.50;5002633;28;20494;-82
2022/10/23 04:54:13;;;;;;;7.30;4.63;;;;;;;8.69;100.00;100964.09;5018260;28;20087;-82
2022/10/23 04:56:40;;;;;;;8.00;5.15;;;;;;;8.67;100.00;100968.53;5018674;28;20041;-83
2022/10/23 04:59:07;;;;;;;7.78;4.82;;;;;;;8.58;100.00;100964.19;5020230;28;20045;-83
2022/10/23 05:01:33;;;;;;;8.50;4.38;;;;;;;8.56;100.00;100965.06;4998691;28;20040;-82
2022/10/23 05:04:00;;;;;;;10.05;4.65;;;;;;;8.55;100.00;100960.69;5005940;28;20030;-81
2022/10/23 05:06:27;;;;;;;6.50;4.90;;;;;;;8.51;100.00;100958.97;5000718;28;20099;-81
2022/10/23 05:08:54;;;;;;;6.88;4.82;;;;;;;8.44;100.00;100955.50;5017196;28;20064;-81
2022/10/23 05:11:21;;;;;;;5.07;4.07;;;;;;;8.37;100.00;100952.03;5001498;28;20049;-81
2022/10/23 05:13:47;;;;;;;8.07;4.22;;;;;;;8.30;100.00;100955.56;4997118;28;20664;-81
2022/10/23 05:16:37;;;;;;;7.78;5.10;;;;;;;8.34;100.00;100949.41;5012934;28;20063;-81
2022/10/23 05:19:06;;;;;;;6.10;4.38;;;;;;;8.28;100.00;100954.72;5004522;28;20059;-81
2022/10/23 05:21:34;;;;;;;7.88;4.53;;;;;;;8.22;100.00;100944.22;5026377;28;20052;-81
2022/10/23 05:24:01;;;;;;;7.47;4.90;;;;;;;8.21;100.00;100950.34;5042479;28;20040;-85
2022/10/23 05:26:30;;;;;;;9.27;5.20;;;;;;;8.21;100.00;100945.09;5002201;28;20033;-84
2022/10/23 05:28:56;;;;;;;7.82;5.32;;;;;;;8.15;100.00;100947.75;5001989;28;20513;-84
2022/10/23 05:31:24;;;;;;;6.90;4.70;;;;;;;8.09;100.00;100955.72;4997594;28;20055;-84
2022/10/23 05:33:52;;;;;;;7.43;4.22;;;;;;;8.08;100.00;100951.34;4991958;28;20044;-83
2022/10/23 05:36:18;;;;;;;9.02;5.05;;;;;;;8.05;100.00;100946.06;5009224;28;20048;-82
2022/10/23 05:38:45;;;;;;;6.32;4.55;;;;;;;8.06;100.00;100940.78;5011824;28;20045;-84
2022/10/23 05:41:12;;;;;;;9.18;5.00;;;;;;;8.00;100.00;100935.59;5008906;28;20833;-84
2022/10/23 05:43:39;;;;;;;9.40;4.93;;;;;;;7.97;100.00;100950.50;5003810;28;20160;-85
2022/10/23 05:46:06;;;;;;;8.32;4.90;;;;;;;8.00;100.00;100946.09;4999633;28;20041;-84
2022/10/23 05:48:33;;;;;;;7.28;4.93;;;;;;;7.98;100.00;100949.59;5032095;28;20110;-84
2022/10/23 05:51:09;;;;;;;8.50;5.43;;;;;;;7.90;100.00;100949.66;5002889;28;20040;-84
2022/10/23 05:53:35;;;;;;;7.55;4.78;;;;;;;7.93;100.00;100948.78;5017584;28;20045;-84
2022/10/23 05:56:07;;;;;;;8.77;5.50;;;;;;;7.88;100.00;100952.28;5021828;28;20053;-84
2022/10/23 05:58:34;;;;;;;10.98;5.80;;;;;;;7.90;100.00;100950.56;5018227;28;20041;-85
2022/10/23 06:01:05;;;;;;;10.60;5.60;;;;;;;7.94;100.00;100954.03;5000357;28;20672;-83
2022/10/23 06:03:33;;;;;;;7.88;5.95;;;;;;;7.93;100.00;100961.94;5011502;28;20152;-84
2022/10/23 06:05:59;;;;;;;10.80;6.72;;;;;;;7.97;100.00;100961.00;4999178;28;20057;-84
2022/10/23 06:08:26;;;;;;;8.32;5.80;;;;;;;7.97;100.00;100964.53;4999090;28;20174;-84
2022/10/23 06:10:53;;;;;;;8.43;6.03;;;;;;;8.00;100.00;100961.91;5017183;28;20090;-84
2022/10/23 06:13:20;;;;;;;10.13;5.57;;;;;;;8.02;100.00;100960.13;5020749;28;20056;-84
2022/10/23 06:15:46;;;;;;;9.43;5.80;;;;;;;8.06;100.00;100968.88;5015696;28;20495;-85
2022/10/23 06:18:13;;;;;;;11.80;6.30;;;;;;;8.04;100.00;100966.25;4998618;28;20045;-84
2022/10/23 06:20:40;;;;;;;10.77;5.90;;;;;;;8.09;100.00;100961.84;5034648;28;20697;-83
2022/10/23 06:23:07;;;;;;;8.10;5.20;;;;;;;8.15;100.00;100959.16;5017129;28;20094;-84
2022/10/23 06:25:33;;;;;;;7.73;5.37;;;;;;;8.20;100.00;100959.16;4999869;28;20624;-82
2022/10/23 06:28:00;;;;;;;12.13;5.83;;;;;;;8.26;100.00;100956.47;4997151;28;20520;-82
2022/10/23 06:30:27;;;;;;;12.13;6.93;;;;;;;8.25;100.00;100959.13;5016281;28;20037;-82
2022/10/23 06:32:53;;;;;;;10.35;6.30;;;;;;;8.30;100.00;100955.56;5028328;28;20042;-82
2022/10/23 06:35:20;;;;;;;7.72;5.35;;;;;;;8.36;100.00;100950.31;5029662;28;20036;-83
2022/10/23 06:37:47;;;;;;;9.00;5.55;;;;;;;8.43;100.00;100952.00;5016521;28;20067;-81
2022/10/23 06:40:13;;;;;;;7.85;5.70;;;;;;;8.49;100.00;100960.72;5014134;28;20048;-83
2022/10/23 06:42:40;;;;;;;9.02;5.07;;;;;;;8.50;100.00;100966.00;5034334;28;20095;-83
2022/10/23 06:45:07;;;;;;;9.50;5.60;;;;;;;8.55;100.00;100976.50;5000282;28;20037;-82
2022/10/23 06:47:34;;;;;;;11.63;6.23;;;;;;;8.59;100.00;100971.22;5027130;28;20040;-81
2022/10/23 06:50:00;;;;;;;10.60;6.88;;;;;;;8.65;100.00;100967.63;5000600;28;20484;-82
2022/10/23 06:52:30;;;;;;;10.88;6.22;;;;;;;8.73;100.00;100971.94;4997156;28;20059;-82
2022/10/23 06:55:13;;;;;;;7.97;5.68;;;;;;;8.76;100.00;100964.94;5021693;28;20118;-82
2022/10/23 06:57:40;;;;;;;10.10;5.82;;;;;;;8.80;100.00;100961.38;5000610;28;20033;-82
2022/10/23 07:00:08;;;;;;;9.70;5.50;;;;;;;8.79;100.00;100959.63;5032606;28;20051;-82
2022/10/23 07:02:35;;;;;;;9.32;5.65;;;;;;;8.82;100.00;100963.09;5002535;28;20048;-82
2022/10/23 07:05:02;;;;;;;8.75;5.40;;;;;;;8.86;100.00;100972.75;5014766;28;20095;-82
2022/10/23 07:07:30;;;;;;;13.23;6.53;;;;;;;8.92;100.00;100974.47;5010225;28;20092;-81
2022/10/23 07:09:56;;;;;;;8.98;5.75;;;;;;;8.98;100.00;100979.66;5006447;28;20053;-81
2022/10/23 07:12:23;;;;;;;10.27;5.57;;;;;;;9.05;100.00;100981.34;4995624;28;20131;-81
2022/10/23 07:14:49;;;;;;;10.15;6.07;;;;;;;9.09;100.00;100984.84;5035848;28;20033;-81
2022/10/23 07:17:16;;;;;;;10.65;6.13;;;;;;;9.12;100.00;100993.59;5006158;28;20087;-81
2022/10/23 07:19:43;;;;;;;7.53;5.15;;;;;;;9.16;100.00;100997.06;5002215;28;20490;-81
2022/10/23 07:22:09;;;;;;;10.18;5.65;;;;;;;9.19;100.00;100989.16;5016754;28;20083;-82
2022/10/23 07:24:41;;;;;;;8.50;4.93;;;;;;;9.23;100.00;100993.47;4999334;28;20033;-82
2022/10/23 07:27:08;;;;;;;11.57;6.43;;;;;;;9.24;100.00;100997.88;5014529;28;20090;-81
2022/10/23 07:29:35;;;;;;;9.30;5.97;;;;;;;9.29;100.00;100999.56;5015244;28;20114;-82
2022/10/23 07:32:03;;;;;;;9.25;5.90;;;;;;;9.35;100.00;100990.75;5031422;28;20041;-81
2022/10/23 07:34:30;;;;;;;8.45;5.60;;;;;;;9.41;100.00;100984.50;5036448;28;20037;-82
2022/10/23 07:36:57;;;;;;;9.50;5.90;;;;;;;9.44;100.00;100995.91;5021073;28;20041;-82
2022/10/23 07:39:24;;;;;;;10.63;6.40;;;;;;;9.47;100.00;100995.88;5041777;28;20106;-81
2022/10/23 07:41:50;;;;;;;9.23;6.22;;;;;;;9.47;100.00;100998.50;5001560;28;20045;-82
2022/10/23 07:44:17;;;;;;;9.75;6.35;;;;;;;9.48;100.00;100989.72;5014869;28;20049;-82
2022/10/23 07:46:46;;;;;;;9.95;6.53;;;;;;;9.48;100.00;100981.78;5006907;28;20041;-83
2022/10/23 07:49:13;;;;;;;9.48;5.65;;;;;;;9.50;100.00;100987.97;5005821;28;20902;-82
2022/10/23 07:51:39;;;;;;;8.73;6.32;;;;;;;9.48;100.00;100979.16;5017902;28;20061;-81
2022/10/23 07:54:07;;;;;;;9.77;6.57;;;;;;;9.50;100.00;100972.13;5005090;28;20029;-82
2022/10/23 07:56:33;;;;;;;9.65;5.90;;;;;;;9.52;100.00;100974.75;5014609;28;20041;-82
2022/10/23 07:59:00;;;;;;;7.72;5.82;;;;;;;9.51;100.00;100976.50;4998032;28;20095;-82
2022/10/23 08:01:30;;;;;;;10.38;6.00;;;;;;;9.53;100.00;100979.13;4994689;28;20227;-83
2022/10/23 08:03:58;;;;;;;9.60;5.75;;;;;;;9.57;100.00;100980.81;5028900;28;20045;-83
2022/10/23 08:06:25;;;;;;;8.75;5.90;;;;;;;9.61;100.00;100979.03;4991666;28;20084;-83
2022/10/23 08:08:51;;;;;;;9.38;6.30;;;;;;;9.64;100.00;100979.00;5008343;28;20052;-83
2022/10/23 08:11:25;;;;;;;8.90;5.45;;;;;;;9.67;100.00;100973.66;5031174;28;20127;-82
2022/10/23 08:13:52;;;;;;;;;;;;;;;9.68;100.00;100970.16;5031737;28;20102;-82
2022/10/23 08:16:19;;;;;;;6.95;4.72;;;;;;;9.73;100.00;100965.69;5014787;28;20374;-82
2022/10/23 08:18:48;;;;;;;8.73;5.60;;;;;;;9.81;100.00;100969.13;4995324;28;20567;-82
2022/10/23 08:21:16;;;;;;;8.93;5.60;;;;;;;9.83;100.00;100962.91;4999511;28;20052;-82
2022/10/23 08:23:43;;;;;;;10.32;6.20;;;;;;;9.85;100.00;100963.78;5045652;28;20041;-83
2022/10/23 08:26:10;;;;;;;7.15;5.72;;;;;;;9.89;100.00;100959.34;5027259;28;20040;-82
2022/10/23 08:28:36;;;;;;;8.15;5.50;;;;;;;9.95;100.00;100959.25;4999674;28;20445;-85
2022/10/23 08:31:11;;;;;;;8.90;5.75;;;;;;;10.00;100.00;100962.69;5012175;28;20044;-84
2022/10/23 08:33:39;;;;;;;8.07;5.28;;;;;;;10.06;100.00;100965.25;5006943;28;20048;-83
2022/10/23 08:36:17;;;;;;;9.45;5.32;;;;;;;10.18;100.00;100958.09;5027687;28;20063;-85
2022/10/23 08:38:45;;;;;;;6.57;5.40;;;;;;;10.24;100.00;100961.53;4990117;28;20037;-82
2022/10/23 08:41:30;;;;;;;8.38;5.82;;;;;;;10.35;100.00;100959.63;5031160;28;20078;-83
2022/10/23 08:44:17;;;;;;;7.38;5.57;;;;;;;10.49;100.00;100962.03;5011817;28;20107;-80
2022/10/23 08:46:48;;;;;;;16.05;8.20;;;;;;;10.76;100.00;100967.78;5013931;28;20111;-82
2022/10/23 08:49:21;;;;;;;11.10;7.88;;;;;;;10.97;100.00;100967.44;4997992;28;20045;-83
2022/10/23 08:51:51;;;;;;;9.55;7.30;;;;;;;11.18;100.00;100963.53;5032501;28;20422;-81
2022/10/23 08:54:25;;;;;;;10.82;6.45;;;;;;;11.35;100.00;100966.75;5017067;28;20055;-82
2022/10/23 08:57:13;;;;;;;11.27;7.22;;;;;;;11.52;100.00;100966.44;4993961;28;20041;-82
2022/10/23 08:59:49;;;;;;;10.68;6.03;;;;;;;11.70;100.00;100962.56;5010539;28;20128;-82
2022/10/23 09:02:25;;;;;;;12.02;7.13;;;;;;;11.93;100.00;100967.38;5028503;28;20130;-81
2022/10/23 09:04:53;;;;;;;9.73;6.82;;;;;;;12.02;100.00;100965.44;5013479;28;20037;-85
2022/10/23 09:07:42;;;;;;;9.45;6.57;;;;;;;12.07;100.00;100967.97;4997038;28;20037;-85
2022/10/23 09:10:24;;;;;;;10.93;8.00;;;;;;;12.29;100.00;100963.94;4997285;28;20056;-86
2022/10/23 09:12:50;;;;;;;8.75;5.95;;;;;;;12.52;100.00;100965.16;5046226;28;20041;-85
2022/10/23 09:15:22;;;;;;;8.77;6.22;;;;;;;12.73;100.00;100959.38;5012223;28;20068;-83
2022/10/23 09:17:57;;;;;;;8.65;6.55;;;;;;;12.95;100.00;100946.47;5017974;28;20044;-84
2022/10/23 09:20:33;;;;;;;9.88;6.50;;;;;;;13.37;100.00;100951.53;4995094;28;20040;-84
2022/10/23 09:23:20;;;;;;;11.27;6.25;;;;;;;13.60;100.00;100943.81;4996041;28;20064;-84
2022/10/23 09:25:54;;;;;;;10.10;6.30;;;;;;;13.78;100.00;100947.72;5005235;28;20041;-85
2022/10/23 09:28:21;;;;;;;12.85;6.82;;;;;;;14.04;100.00;100946.94;5016624;28;20047;-84
2022/10/23 09:30:49;;;;;;;8.85;5.97;;;;;;;14.19;100.00;100949.16;5034374;28;20122;-84
2022/10/23 09:33:20;;;;;;;9.05;5.70;;;;;;;14.44;100.00;100945.72;4999556;28;20076;-84
2022/10/23 09:35:56;;;;;;;13.05;6.60;;;;;;;14.68;100.00;100949.41;5015442;28;20065;-83
2022/10/23 09:38:50;;;;;;;6.25;5.00;;;;;;;15.00;100.00;100945.69;5017464;28;20037;-84
2022/10/23 09:41:29;;;;;;;10.00;5.63;;;;;;;15.13;100.00;100945.22;5020057;28;20056;-83
2022/10/23 09:44:23;;;;;;;8.85;4.85;;;;;;;15.47;100.00;100938.72;4999867;28;20490;-82
2022/10/23 09:46:52;;;;;;;7.53;4.43;;;;;;;15.58;100.00;100949.81;4998540;28;20053;-82
2022/10/23 09:49:27;;;;;;;7.38;4.57;;;;;;;15.70;100.00;100949.41;5013015;28;20128;-82
2022/10/23 09:52:18;;;;;;;7.93;4.30;;;;;;;15.86;100.00;100962.16;4998952;28;20575;-83
2022/10/23 09:54:47;;;;;;;8.40;5.28;;;;;;;16.08;100.00;100954.22;5008008;28;20040;-84
2022/10/23 09:57:21;;;;;;;7.65;4.75;;;;;;;16.24;100.00;100958.91;5000225;28;20045;-83
2022/10/23 09:59:52;;;;;;;9.30;4.13;;;;;;;16.41;100.00;100960.91;5030413;28;20501;-83
2022/10/23 10:02:28;;;;;;;7.95;4.07;;;;;;;16.51;100.00;100964.94;5004911;28;20457;-83
2022/10/23 10:04:57;;;;;;;11.98;4.32;;;;;;;16.66;100.00;100955.44;4999060;28;20045;-82
2022/10/23 10:07:27;;;;;;;9.43;4.18;;;;;;;16.72;100.00;100952.53;5020287;28;20084;-83
2022/10/23 10:10:06;;;;;;;5.35;3.78;;;;;;;16.83;100.00;100952.97;4995302;28;20037;-83
2022/10/23 10:12:45;;;;;;;8.45;3.88;;;;;;;16.87;100.00;100946.56;5034345;28;20087;-83
2022/10/23 10:15:46;;;;;;;7.72;3.40;;;;;;;16.82;100.00;100945.03;5018329;28;20044;-83
2022/10/23 10:18:18;;;;;;;7.80;3.88;;;;;;;16.64;100.00;100946.63;5019240;28;20103;-82
2022/10/23 10:20:59;;;;;;;8.27;3.33;;;;;;;16.71;100.00;100941.94;5024178;28;20457;-82
2022/10/23 10:23:32;;;;;;;6.20;3.28;;;;;;;16.79;100.00;100938.00;5020291;28;20053;-81
2022/10/23 10:26:24;;;;;;;6.85;3.30;;;;;;;16.86;100.00;100930.63;4998112;28;20033;-82
2022/10/23 10:29:15;;;;;;;5.60;3.45;;;;;;;17.05;100.00;100928.91;5027406;28;20445;-83
2022/10/23 10:31:55;;;;;;;7.95;3.08;;;;;;;17.17;100.00;100927.53;5033968;28;20480;-82
2022/10/23 10:34:29;;;;;;;4.05;2.90;;;;;;;17.26;97.12;100929.78;5016347;28;20033;-82
2022/10/23 10:37:24;;;;;;;4.07;3.15;;;;;;;17.32;97.72;100918.84;5014580;28;20098;-83
2022/10/23 10:39:54;;;;;;;7.30;3.00;;;;;;;17.40;97.23;100908.69;5011872;28;20045;-85
2022/10/23 10:42:37;;;;;;;4.70;3.35;;;;;;;17.49;96.22;100904.75;4992202;28;20045;-84
2022/10/23 10:45:22;;;;;;;7.35;3.22;;;;;;;17.54;95.70;100905.38;5013976;28;20036;-84
2022/10/23 10:47:55;;;;;;;6.50;2.95;;;;;;;17.60;91.67;100902.44;5052940;28;20048;-83
2022/10/23 10:50:27;;;;;;;4.18;3.53;;;;;;;17.61;92.29;100897.97;5048962;28;20033;-83
2022/10/23 10:53:08;;;;;;;6.32;3.40;;;;;;;17.63;93.80;100893.41;5043861;28;21748;-84
2022/10/23 10:55:40;;;;;;;5.82;3.35;;;;;;;17.64;94.05;100881.78;5013289;28;21329;-85
2022/10/23 10:58:22;;;;;;;8.35;3.85;;;;;;;17.65;94.49;100891.53;5020669;28;20033;-84
2022/10/23 11:00:54;;;;;;;5.63;3.47;;;;;;;17.76;93.24;100880.41;5009069;28;20080;-85
2022/10/23 11:03:35;;;;;;;4.90;3.25;;;;;;;17.82;94.62;100878.28;5008752;28;20565;-84
2022/10/23 11:06:13;;;;;;;;;;;;;;;17.95;94.07;100874.09;5012008;28;20486;-85
2022/10/23 11:08:43;;;;;;;6.78;3.40;;;;;;;17.92;90.83;100868.91;4994001;28;19924;-84
2022/10/23 11:11:27;;;;;;;5.25;3.15;;;;;;;17.87;94.43;100862.91;5001497;28;20514;-82
2022/10/23 11:13:54;;;;;;;5.18;3.10;;;;;;;17.91;89.17;100864.50;5026591;28;20131;-83
2022/10/23 11:16:37;;;;;;;4.32;3.30;;;;;;;17.85;90.83;100856.78;5006305;28;20099;-83
2022/10/23 11:19:14;;;;;;;5.40;3.22;;;;;;;17.87;92.93;100856.69;4994804;28;20042;-86
2022/10/23 11:21:57;;;;;;;5.90;2.97;;;;;;;17.90;94.23;100862.75;5018486;28;20040;-86
2022/10/23 11:24:52;;;;;;;5.80;2.97;;;;;;;18.02;91.31;100860.44;5019482;28;20092;-86
2022/10/23 11:27:30;;;;;;;3.95;2.65;;;;;;;18.02;93.42;100857.78;5007334;28;20498;-87
2022/10/23 11:30:08;;;;;;;5.15;3.13;;;;;;;17.98;90.88;100849.88;5024427;28;20098;-86
2022/10/23 11:33:11;;;;;;;4.00;2.63;;;;;;;18.07;90.16;100842.34;4999287;28;20099;-87
2022/10/23 11:36:16;;;;;;;4.45;3.10;;;;;;;18.07;91.52;100837.88;5046475;28;20053;-85
2022/10/23 11:38:48;;;;;;;5.70;3.08;;;;;;;18.13;88.60;100836.72;5017967;28;20098;-85